sensor_id;sensor_type;location;lat;lon;timestamp;P1;durP1;ratioP1;P2;durP2;ratioP2
44822;SDS011;51097;51.984;5.650;2023-07-08T00:02:15;3.90;;;3.08;;
44822;SDS011;51097;51.984;5.650;2023-07-08T00:04:41;4.05;;;3.15;;
44822;SDS011;51097;51.984;5.650;2023-07-08T00:07:11;5.57;;;3.10;;
44822;SDS011;51097;51.984;5.650;2023-07-08T00:09:38;4.90;;;3.17;;
44822;SDS011;51097;51.984;5.650;2023-07-08T00:12:08;3.20;;;2.90;;
44822;SDS011;51097;51.984;5.650;2023-07-08T00:14:35;6.78;;;3.72;;
44822;SDS011;51097;51.984;5.650;2023-07-08T00:17:01;6.10;;;3.33;;
44822;SDS011;51097;51.984;5.650;2023-07-08T00:19:26;5.93;;;3.92;;
44822;SDS011;51097;51.984;5.650;2023-07-08T00:21:52;3.20;;;2.83;;
44822;SDS011;51097;51.984;5.650;2023-07-08T00:24:17;5.72;;;3.55;;
44822;SDS011;51097;51.984;5.650;2023-07-08T00:26:43;6.43;;;3.40;;
44822;SDS011;51097;51.984;5.650;2023-07-08T00:29:09;4.85;;;3.50;;
44822;SDS011;51097;51.984;5.650;2023-07-08T00:31:37;3.92;;;3.50;;
44822;SDS011;51097;51.984;5.650;2023-07-08T00:34:03;7.07;;;3.35;;
44822;SDS011;51097;51.984;5.650;2023-07-08T00:36:28;3.97;;;2.97;;
44822;SDS011;51097;51.984;5.650;2023-07-08T00:38:55;4.30;;;3.00;;
44822;SDS011;51097;51.984;5.650;2023-07-08T00:41:22;4.82;;;3.50;;
44822;SDS011;51097;51.984;5.650;2023-07-08T00:43:55;4.50;;;3.40;;
44822;SDS011;51097;51.984;5.650;2023-07-08T00:51:22;7.03;;;3.92;;
44822;SDS011;51097;51.984;5.650;2023-07-08T00:53:47;4.70;;;3.08;;
44822;SDS011;51097;51.984;5.650;2023-07-08T00:56:18;4.70;;;2.78;;
44822;SDS011;51097;51.984;5.650;2023-07-08T01:01:37;6.28;;;3.08;;
44822;SDS011;51097;51.984;5.650;2023-07-08T01:04:06;3.47;;;3.17;;
44822;SDS011;51097;51.984;5.650;2023-07-08T01:06:37;4.40;;;3.28;;
44822;SDS011;51097;51.984;5.650;2023-07-08T01:09:07;3.40;;;3.10;;
44822;SDS011;51097;51.984;5.650;2023-07-08T01:11:34;7.45;;;3.67;;
44822;SDS011;51097;51.984;5.650;2023-07-08T01:14:04;6.47;;;3.58;;
44822;SDS011;51097;51.984;5.650;2023-07-08T01:16:32;3.67;;;2.78;;
44822;SDS011;51097;51.984;5.650;2023-07-08T01:18:59;6.93;;;3.33;;
44822;SDS011;51097;51.984;5.650;2023-07-08T01:21:30;4.85;;;3.30;;
44822;SDS011;51097;51.984;5.650;2023-07-08T01:24:02;9.27;;;3.35;;
44822;SDS011;51097;51.984;5.650;2023-07-08T01:26:31;8.13;;;3.55;;
44822;SDS011;51097;51.984;5.650;2023-07-08T01:29:00;5.43;;;3.63;;
44822;SDS011;51097;51.984;5.650;2023-07-08T01:31:27;3.55;;;2.83;;
44822;SDS011;51097;51.984;5.650;2023-07-08T01:33:54;4.10;;;3.20;;
44822;SDS011;51097;51.984;5.650;2023-07-08T01:36:20;4.03;;;3.15;;
44822;SDS011;51097;51.984;5.650;2023-07-08T01:38:46;7.63;;;3.35;;
44822;SDS011;51097;51.984;5.650;2023-07-08T01:41:13;7.00;;;3.22;;
44822;SDS011;51097;51.984;5.650;2023-07-08T01:43:40;5.63;;;2.97;;
44822;SDS011;51097;51.984;5.650;2023-07-08T01:46:11;4.88;;;3.45;;
44822;SDS011;51097;51.984;5.650;2023-07-08T01:48:48;3.75;;;2.85;;
44822;SDS011;51097;51.984;5.650;2023-07-08T01:51:21;3.08;;;2.78;;
44822;SDS011;51097;51.984;5.650;2023-07-08T01:53:48;3.83;;;3.45;;
44822;SDS011;51097;51.984;5.650;2023-07-08T01:56:14;4.82;;;3.35;;
44822;SDS011;51097;51.984;5.650;2023-07-08T01:58:40;4.38;;;3.17;;
44822;SDS011;51097;51.984;5.650;2023-07-08T02:01:06;4.18;;;3.08;;
44822;SDS011;51097;51.984;5.650;2023-07-08T02:03:32;6.35;;;3.55;;
44822;SDS011;51097;51.984;5.650;2023-07-08T02:05:58;3.75;;;3.20;;
44822;SDS011;51097;51.984;5.650;2023-07-08T02:08:24;4.07;;;3.60;;
44822;SDS011;51097;51.984;5.650;2023-07-08T02:10:55;6.15;;;3.35;;
44822;SDS011;51097;51.984;5.650;2023-07-08T02:13:22;7.22;;;3.08;;
44822;SDS011;51097;51.984;5.650;2023-07-08T02:15:48;4.28;;;2.90;;
44822;SDS011;51097;51.984;5.650;2023-07-08T02:18:15;4.53;;;3.40;;
44822;SDS011;51097;51.984;5.650;2023-07-08T02:20:41;8.23;;;3.72;;
44822;SDS011;51097;51.984;5.650;2023-07-08T02:23:08;5.45;;;3.20;;
44822;SDS011;51097;51.984;5.650;2023-07-08T02:25:33;3.47;;;3.17;;
44822;SDS011;51097;51.984;5.650;2023-07-08T02:27:59;4.10;;;3.15;;
44822;SDS011;51097;51.984;5.650;2023-07-08T02:30:25;4.20;;;3.28;;
44822;SDS011;51097;51.984;5.650;2023-07-08T02:32:51;5.50;;;3.33;;
44822;SDS011;51097;51.984;5.650;2023-07-08T02:35:26;3.95;;;3.33;;
44822;SDS011;51097;51.984;5.650;2023-07-08T02:37:55;5.53;;;3.20;;
44822;SDS011;51097;51.984;5.650;2023-07-08T02:40:22;4.00;;;3.22;;
44822;SDS011;51097;51.984;5.650;2023-07-08T02:42:49;3.88;;;3.13;;
44822;SDS011;51097;51.984;5.650;2023-07-08T02:45:15;5.60;;;3.38;;
44822;SDS011;51097;51.984;5.650;2023-07-08T02:47:41;3.97;;;3.42;;
44822;SDS011;51097;51.984;5.650;2023-07-08T02:50:08;5.30;;;3.90;;
44822;SDS011;51097;51.984;5.650;2023-07-08T02:52:34;5.78;;;3.20;;
44822;SDS011;51097;51.984;5.650;2023-07-08T02:55:00;7.32;;;3.45;;
44822;SDS011;51097;51.984;5.650;2023-07-08T02:57:25;5.20;;;3.20;;
44822;SDS011;51097;51.984;5.650;2023-07-08T02:59:51;4.07;;;3.42;;
44822;SDS011;51097;51.984;5.650;2023-07-08T03:02:17;4.75;;;3.20;;
44822;SDS011;51097;51.984;5.650;2023-07-08T03:04:42;5.00;;;3.13;;
44822;SDS011;51097;51.984;5.650;2023-07-08T03:07:08;7.03;;;3.53;;
44822;SDS011;51097;51.984;5.650;2023-07-08T03:09:40;5.40;;;3.80;;
44822;SDS011;51097;51.984;5.650;2023-07-08T03:12:06;3.78;;;3.42;;
44822;SDS011;51097;51.984;5.650;2023-07-08T03:14:33;5.03;;;4.07;;
44822;SDS011;51097;51.984;5.650;2023-07-08T03:16:59;4.22;;;2.67;;
44822;SDS011;51097;51.984;5.650;2023-07-08T03:19:24;3.17;;;2.83;;
44822;SDS011;51097;51.984;5.650;2023-07-08T03:21:51;3.70;;;3.15;;
44822;SDS011;51097;51.984;5.650;2023-07-08T03:24:17;4.53;;;3.70;;
44822;SDS011;51097;51.984;5.650;2023-07-08T03:26:43;6.07;;;3.45;;
44822;SDS011;51097;51.984;5.650;2023-07-08T03:29:17;5.20;;;3.33;;
44822;SDS011;51097;51.984;5.650;2023-07-08T03:31:44;6.07;;;3.90;;
44822;SDS011;51097;51.984;5.650;2023-07-08T03:34:12;5.82;;;3.47;;
44822;SDS011;51097;51.984;5.650;2023-07-08T03:36:44;4.72;;;3.20;;
44822;SDS011;51097;51.984;5.650;2023-07-08T03:39:14;4.65;;;3.25;;
44822;SDS011;51097;51.984;5.650;2023-07-08T03:41:41;4.85;;;3.10;;
44822;SDS011;51097;51.984;5.650;2023-07-08T03:44:06;3.92;;;3.25;;
44822;SDS011;51097;51.984;5.650;2023-07-08T03:46:32;6.25;;;3.63;;
44822;SDS011;51097;51.984;5.650;2023-07-08T03:48:58;3.70;;;3.30;;
44822;SDS011;51097;51.984;5.650;2023-07-08T03:51:25;7.30;;;3.40;;
44822;SDS011;51097;51.984;5.650;2023-07-08T03:53:55;5.07;;;3.40;;
44822;SDS011;51097;51.984;5.650;2023-07-08T03:56:21;4.55;;;3.15;;
44822;SDS011;51097;51.984;5.650;2023-07-08T03:58:47;5.07;;;3.85;;
44822;SDS011;51097;51.984;5.650;2023-07-08T04:01:16;5.32;;;4.40;;
44822;SDS011;51097;51.984;5.650;2023-07-08T04:03:44;4.90;;;3.28;;
44822;SDS011;51097;51.984;5.650;2023-07-08T04:06:10;4.32;;;3.83;;
44822;SDS011;51097;51.984;5.650;2023-07-08T04:08:35;5.72;;;3.13;;
44822;SDS011;51097;51.984;5.650;2023-07-08T04:11:01;3.72;;;3.40;;
44822;SDS011;51097;51.984;5.650;2023-07-08T04:13:27;7.45;;;4.60;;
44822;SDS011;51097;51.984;5.650;2023-07-08T04:15:54;3.97;;;3.40;;
44822;SDS011;51097;51.984;5.650;2023-07-08T04:18:23;5.25;;;3.42;;
44822;SDS011;51097;51.984;5.650;2023-07-08T04:20:48;3.25;;;2.95;;
44822;SDS011;51097;51.984;5.650;2023-07-08T04:23:17;5.55;;;3.05;;
44822;SDS011;51097;51.984;5.650;2023-07-08T04:25:44;5.32;;;3.38;;
44822;SDS011;51097;51.984;5.650;2023-07-08T04:28:10;4.63;;;3.70;;
44822;SDS011;51097;51.984;5.650;2023-07-08T04:30:35;4.40;;;3.05;;
44822;SDS011;51097;51.984;5.650;2023-07-08T04:33:06;6.68;;;3.45;;
44822;SDS011;51097;51.984;5.650;2023-07-08T04:35:33;4.85;;;3.70;;
44822;SDS011;51097;51.984;5.650;2023-07-08T04:38:00;4.97;;;3.05;;
44822;SDS011;51097;51.984;5.650;2023-07-08T04:40:26;5.80;;;3.38;;
44822;SDS011;51097;51.984;5.650;2023-07-08T04:42:52;4.47;;;3.55;;
44822;SDS011;51097;51.984;5.650;2023-07-08T04:45:18;5.07;;;3.15;;
44822;SDS011;51097;51.984;5.650;2023-07-08T04:47:44;5.05;;;3.45;;
44822;SDS011;51097;51.984;5.650;2023-07-08T04:50:12;3.28;;;2.88;;
44822;SDS011;51097;51.984;5.650;2023-07-08T04:52:38;3.58;;;2.90;;
44822;SDS011;51097;51.984;5.650;2023-07-08T04:55:03;4.40;;;3.20;;
44822;SDS011;51097;51.984;5.650;2023-07-08T04:57:29;3.85;;;3.13;;
44822;SDS011;51097;51.984;5.650;2023-07-08T04:59:55;4.70;;;3.10;;
44822;SDS011;51097;51.984;5.650;2023-07-08T05:02:20;4.60;;;3.30;;
44822;SDS011;51097;51.984;5.650;2023-07-08T05:04:46;3.28;;;2.97;;
44822;SDS011;51097;51.984;5.650;2023-07-08T05:07:11;4.15;;;3.22;;
44822;SDS011;51097;51.984;5.650;2023-07-08T05:09:37;3.83;;;3.38;;
44822;SDS011;51097;51.984;5.650;2023-07-08T05:12:03;5.80;;;3.10;;
44822;SDS011;51097;51.984;5.650;2023-07-08T05:14:28;3.60;;;3.30;;
44822;SDS011;51097;51.984;5.650;2023-07-08T05:16:55;3.50;;;3.10;;
44822;SDS011;51097;51.984;5.650;2023-07-08T05:19:22;4.95;;;3.08;;
44822;SDS011;51097;51.984;5.650;2023-07-08T05:21:48;4.18;;;3.53;;
44822;SDS011;51097;51.984;5.650;2023-07-08T05:24:13;3.80;;;2.90;;
44822;SDS011;51097;51.984;5.650;2023-07-08T05:26:39;4.97;;;3.22;;
44822;SDS011;51097;51.984;5.650;2023-07-08T05:29:04;5.78;;;3.40;;
44822;SDS011;51097;51.984;5.650;2023-07-08T05:31:30;5.13;;;3.00;;
44822;SDS011;51097;51.984;5.650;2023-07-08T05:33:56;4.63;;;3.20;;
44822;SDS011;51097;51.984;5.650;2023-07-08T05:36:21;6.13;;;3.22;;
44822;SDS011;51097;51.984;5.650;2023-07-08T05:38:47;3.20;;;2.90;;
44822;SDS011;51097;51.984;5.650;2023-07-08T05:41:13;7.93;;;3.08;;
44822;SDS011;51097;51.984;5.650;2023-07-08T05:43:38;3.75;;;2.95;;
44822;SDS011;51097;51.984;5.650;2023-07-08T05:46:04;3.92;;;3.22;;
44822;SDS011;51097;51.984;5.650;2023-07-08T05:48:29;4.85;;;3.20;;
44822;SDS011;51097;51.984;5.650;2023-07-08T05:50:55;5.35;;;3.20;;
44822;SDS011;51097;51.984;5.650;2023-07-08T05:53:21;4.18;;;2.92;;
44822;SDS011;51097;51.984;5.650;2023-07-08T05:55:50;4.03;;;2.90;;
44822;SDS011;51097;51.984;5.650;2023-07-08T05:58:15;3.70;;;3.17;;
44822;SDS011;51097;51.984;5.650;2023-07-08T06:00:42;4.88;;;3.13;;
44822;SDS011;51097;51.984;5.650;2023-07-08T06:03:08;5.65;;;3.28;;
44822;SDS011;51097;51.984;5.650;2023-07-08T06:05:34;7.35;;;3.50;;
44822;SDS011;51097;51.984;5.650;2023-07-08T06:07:59;7.50;;;3.28;;
44822;SDS011;51097;51.984;5.650;2023-07-08T06:10:25;3.22;;;2.92;;
44822;SDS011;51097;51.984;5.650;2023-07-08T06:12:51;3.92;;;3.05;;
44822;SDS011;51097;51.984;5.650;2023-07-08T06:15:16;3.45;;;3.15;;
44822;SDS011;51097;51.984;5.650;2023-07-08T06:17:42;3.38;;;2.92;;
44822;SDS011;51097;51.984;5.650;2023-07-08T06:20:08;5.65;;;3.33;;
44822;SDS011;51097;51.984;5.650;2023-07-08T06:22:33;6.75;;;3.58;;
44822;SDS011;51097;51.984;5.650;2023-07-08T06:24:59;4.97;;;3.78;;
44822;SDS011;51097;51.984;5.650;2023-07-08T06:27:24;3.90;;;3.35;;
44822;SDS011;51097;51.984;5.650;2023-07-08T06:29:50;4.15;;;3.25;;
44822;SDS011;51097;51.984;5.650;2023-07-08T06:32:16;4.88;;;2.83;;
44822;SDS011;51097;51.984;5.650;2023-07-08T06:34:42;4.10;;;3.70;;
44822;SDS011;51097;51.984;5.650;2023-07-08T06:37:07;5.95;;;2.92;;
44822;SDS011;51097;51.984;5.650;2023-07-08T06:39:33;3.70;;;3.25;;
44822;SDS011;51097;51.984;5.650;2023-07-08T06:41:58;5.53;;;3.28;;
44822;SDS011;51097;51.984;5.650;2023-07-08T06:44:24;5.22;;;2.95;;
44822;SDS011;51097;51.984;5.650;2023-07-08T06:46:51;6.18;;;3.38;;
44822;SDS011;51097;51.984;5.650;2023-07-08T06:49:16;3.58;;;3.20;;
44822;SDS011;51097;51.984;5.650;2023-07-08T06:51:42;5.70;;;3.60;;
44822;SDS011;51097;51.984;5.650;2023-07-08T06:54:10;3.28;;;2.90;;
44822;SDS011;51097;51.984;5.650;2023-07-08T06:56:39;7.18;;;3.50;;
44822;SDS011;51097;51.984;5.650;2023-07-08T06:59:06;4.22;;;2.78;;
44822;SDS011;51097;51.984;5.650;2023-07-08T07:01:33;3.95;;;3.33;;
44822;SDS011;51097;51.984;5.650;2023-07-08T07:03:58;5.00;;;3.58;;
44822;SDS011;51097;51.984;5.650;2023-07-08T07:06:25;6.25;;;3.70;;
44822;SDS011;51097;51.984;5.650;2023-07-08T07:08:51;5.95;;;3.40;;
44822;SDS011;51097;51.984;5.650;2023-07-08T07:11:16;7.22;;;3.28;;
44822;SDS011;51097;51.984;5.650;2023-07-08T07:13:44;5.10;;;3.50;;
44822;SDS011;51097;51.984;5.650;2023-07-08T07:16:09;5.35;;;3.58;;
44822;SDS011;51097;51.984;5.650;2023-07-08T07:18:35;6.80;;;2.92;;
44822;SDS011;51097;51.984;5.650;2023-07-08T07:21:00;6.13;;;4.53;;
44822;SDS011;51097;51.984;5.650;2023-07-08T07:23:26;6.32;;;4.25;;
44822;SDS011;51097;51.984;5.650;2023-07-08T07:25:52;4.65;;;3.67;;
44822;SDS011;51097;51.984;5.650;2023-07-08T07:28:17;4.65;;;3.83;;
44822;SDS011;51097;51.984;5.650;2023-07-08T07:30:43;5.22;;;3.58;;
44822;SDS011;51097;51.984;5.650;2023-07-08T07:33:09;5.10;;;4.38;;
44822;SDS011;51097;51.984;5.650;2023-07-08T07:35:35;5.47;;;4.53;;
44822;SDS011;51097;51.984;5.650;2023-07-08T07:38:06;5.28;;;4.40;;
44822;SDS011;51097;51.984;5.650;2023-07-08T07:40:31;4.07;;;3.67;;
44822;SDS011;51097;51.984;5.650;2023-07-08T07:42:57;5.78;;;4.07;;
44822;SDS011;51097;51.984;5.650;2023-07-08T07:45:22;5.97;;;3.60;;
44822;SDS011;51097;51.984;5.650;2023-07-08T07:47:48;4.95;;;3.83;;
44822;SDS011;51097;51.984;5.650;2023-07-08T07:50:13;4.22;;;3.65;;
44822;SDS011;51097;51.984;5.650;2023-07-08T07:52:39;5.20;;;4.05;;
44822;SDS011;51097;51.984;5.650;2023-07-08T07:55:05;6.05;;;3.88;;
44822;SDS011;51097;51.984;5.650;2023-07-08T07:57:32;4.72;;;3.88;;
44822;SDS011;51097;51.984;5.650;2023-07-08T07:59:58;5.47;;;4.90;;
44822;SDS011;51097;51.984;5.650;2023-07-08T08:02:24;4.55;;;3.80;;
44822;SDS011;51097;51.984;5.650;2023-07-08T08:04:49;4.60;;;4.03;;
44822;SDS011;51097;51.984;5.650;2023-07-08T08:07:15;8.52;;;4.20;;
44822;SDS011;51097;51.984;5.650;2023-07-08T08:09:40;4.40;;;4.00;;
44822;SDS011;51097;51.984;5.650;2023-07-08T08:12:08;4.88;;;4.22;;
44822;SDS011;51097;51.984;5.650;2023-07-08T08:14:35;13.50;;;4.50;;
44822;SDS011;51097;51.984;5.650;2023-07-08T08:17:01;8.70;;;4.85;;
44822;SDS011;51097;51.984;5.650;2023-07-08T08:19:27;6.32;;;3.78;;
44822;SDS011;51097;51.984;5.650;2023-07-08T08:21:53;6.55;;;4.40;;
44822;SDS011;51097;51.984;5.650;2023-07-08T08:24:18;5.80;;;4.47;;
44822;SDS011;51097;51.984;5.650;2023-07-08T08:26:44;6.53;;;4.68;;
44822;SDS011;51097;51.984;5.650;2023-07-08T08:29:10;5.53;;;4.80;;
44822;SDS011;51097;51.984;5.650;2023-07-08T08:31:35;6.10;;;4.20;;
44822;SDS011;51097;51.984;5.650;2023-07-08T08:34:01;6.32;;;4.97;;
44822;SDS011;51097;51.984;5.650;2023-07-08T08:36:26;4.60;;;4.20;;
44822;SDS011;51097;51.984;5.650;2023-07-08T08:38:52;6.13;;;4.68;;
44822;SDS011;51097;51.984;5.650;2023-07-08T08:41:19;6.70;;;4.93;;
44822;SDS011;51097;51.984;5.650;2023-07-08T08:43:49;9.15;;;4.65;;
44822;SDS011;51097;51.984;5.650;2023-07-08T08:49:18;6.72;;;4.50;;
44822;SDS011;51097;51.984;5.650;2023-07-08T08:51:57;6.60;;;4.75;;
44822;SDS011;51097;51.984;5.650;2023-07-08T08:54:24;6.28;;;5.18;;
44822;SDS011;51097;51.984;5.650;2023-07-08T08:57:00;6.35;;;4.68;;
44822;SDS011;51097;51.984;5.650;2023-07-08T09:02:29;9.63;;;6.28;;
44822;SDS011;51097;51.984;5.650;2023-07-08T09:05:10;5.22;;;4.70;;
44822;SDS011;51097;51.984;5.650;2023-07-08T09:08:23;6.65;;;5.88;;
44822;SDS011;51097;51.984;5.650;2023-07-08T09:10:48;6.70;;;5.07;;
44822;SDS011;51097;51.984;5.650;2023-07-08T09:13:35;10.53;;;6.37;;
44822;SDS011;51097;51.984;5.650;2023-07-08T09:24:36;7.43;;;5.07;;
44822;SDS011;51097;51.984;5.650;2023-07-08T09:27:10;9.90;;;5.18;;
44822;SDS011;51097;51.984;5.650;2023-07-08T09:29:36;5.18;;;4.72;;
44822;SDS011;51097;51.984;5.650;2023-07-08T09:32:11;5.88;;;5.00;;
44822;SDS011;51097;51.984;5.650;2023-07-08T09:34:49;5.75;;;5.25;;
44822;SDS011;51097;51.984;5.650;2023-07-08T09:37:26;6.90;;;5.45;;
44822;SDS011;51097;51.984;5.650;2023-07-08T09:39:57;5.68;;;5.03;;
44822;SDS011;51097;51.984;5.650;2023-07-08T09:42:30;8.38;;;5.25;;
44822;SDS011;51097;51.984;5.650;2023-07-08T09:44:58;5.43;;;4.85;;
44822;SDS011;51097;51.984;5.650;2023-07-08T09:47:27;9.30;;;5.60;;
44822;SDS011;51097;51.984;5.650;2023-07-08T09:49:58;6.90;;;4.57;;
44822;SDS011;51097;51.984;5.650;2023-07-08T09:52:24;6.05;;;5.43;;
44822;SDS011;51097;51.984;5.650;2023-07-08T09:54:50;6.50;;;5.18;;
44822;SDS011;51097;51.984;5.650;2023-07-08T09:59:46;7.25;;;6.28;;
44822;SDS011;51097;51.984;5.650;2023-07-08T10:02:33;6.90;;;6.20;;
44822;SDS011;51097;51.984;5.650;2023-07-08T10:05:13;6.47;;;5.88;;
44822;SDS011;51097;51.984;5.650;2023-07-08T10:07:39;15.65;;;5.85;;
44822;SDS011;51097;51.984;5.650;2023-07-08T10:10:06;7.38;;;6.07;;
44822;SDS011;51097;51.984;5.650;2023-07-08T10:12:39;6.97;;;6.28;;
44822;SDS011;51097;51.984;5.650;2023-07-08T10:15:54;6.50;;;5.85;;
44822;SDS011;51097;51.984;5.650;2023-07-08T10:18:07;8.95;;;5.53;;
44822;SDS011;51097;51.984;5.650;2023-07-08T10:20:45;8.60;;;6.45;;
44822;SDS011;51097;51.984;5.650;2023-07-08T10:26:10;10.27;;;6.18;;
44822;SDS011;51097;51.984;5.650;2023-07-08T10:31:53;9.10;;;7.05;;
44822;SDS011;51097;51.984;5.650;2023-07-08T10:39:54;6.75;;;5.82;;
44822;SDS011;51097;51.984;5.650;2023-07-08T10:45:12;7.80;;;7.00;;
44822;SDS011;51097;51.984;5.650;2023-07-08T10:56:35;10.20;;;6.82;;
44822;SDS011;51097;51.984;5.650;2023-07-08T10:59:23;8.82;;;6.85;;
44822;SDS011;51097;51.984;5.650;2023-07-08T11:01:59;7.35;;;6.60;;
44822;SDS011;51097;51.984;5.650;2023-07-08T11:12:45;8.48;;;7.10;;
44822;SDS011;51097;51.984;5.650;2023-07-08T11:17:46;6.75;;;6.05;;
44822;SDS011;51097;51.984;5.650;2023-07-08T11:20:24;7.90;;;6.45;;
44822;SDS011;51097;51.984;5.650;2023-07-08T11:23:03;10.15;;;7.18;;
44822;SDS011;51097;51.984;5.650;2023-07-08T11:28:03;7.72;;;6.70;;
44822;SDS011;51097;51.984;5.650;2023-07-08T11:30:34;8.57;;;7.30;;
44822;SDS011;51097;51.984;5.650;2023-07-08T11:33:05;7.95;;;7.03;;
44822;SDS011;51097;51.984;5.650;2023-07-08T11:35:42;8.25;;;6.45;;
44822;SDS011;51097;51.984;5.650;2023-07-08T11:38:15;7.50;;;6.88;;
44822;SDS011;51097;51.984;5.650;2023-07-08T11:43:25;7.90;;;6.90;;
44822;SDS011;51097;51.984;5.650;2023-07-08T11:45:54;9.45;;;7.35;;
44822;SDS011;51097;51.984;5.650;2023-07-08T11:48:27;7.55;;;6.75;;
44822;SDS011;51097;51.984;5.650;2023-07-08T11:50:55;8.05;;;7.25;;
44822;SDS011;51097;51.984;5.650;2023-07-08T11:58:26;8.75;;;7.75;;
44822;SDS011;51097;51.984;5.650;2023-07-08T12:01:16;7.40;;;6.70;;
44822;SDS011;51097;51.984;5.650;2023-07-08T12:04:28;7.88;;;6.70;;
44822;SDS011;51097;51.984;5.650;2023-07-08T12:06:53;9.23;;;7.70;;
44822;SDS011;51097;51.984;5.650;2023-07-08T12:09:38;10.98;;;7.38;;
44822;SDS011;51097;51.984;5.650;2023-07-08T12:12:14;13.68;;;7.78;;
44822;SDS011;51097;51.984;5.650;2023-07-08T12:14:58;8.57;;;7.43;;
44822;SDS011;51097;51.984;5.650;2023-07-08T12:17:37;7.43;;;6.65;;
44822;SDS011;51097;51.984;5.650;2023-07-08T12:20:05;9.00;;;7.15;;
44822;SDS011;51097;51.984;5.650;2023-07-08T12:22:40;8.48;;;6.72;;
44822;SDS011;51097;51.984;5.650;2023-07-08T12:25:16;7.50;;;6.50;;
44822;SDS011;51097;51.984;5.650;2023-07-08T12:27:44;6.40;;;5.80;;
44822;SDS011;51097;51.984;5.650;2023-07-08T12:30:11;11.25;;;7.18;;
44822;SDS011;51097;51.984;5.650;2023-07-08T12:32:38;8.50;;;6.93;;
44822;SDS011;51097;51.984;5.650;2023-07-08T12:35:05;11.85;;;7.45;;
44822;SDS011;51097;51.984;5.650;2023-07-08T12:37:47;7.40;;;6.68;;
44822;SDS011;51097;51.984;5.650;2023-07-08T12:40:14;7.63;;;6.80;;
44822;SDS011;51097;51.984;5.650;2023-07-08T12:42:39;7.57;;;6.47;;
44822;SDS011;51097;51.984;5.650;2023-07-08T12:45:12;8.52;;;6.53;;
44822;SDS011;51097;51.984;5.650;2023-07-08T12:47:43;8.52;;;7.13;;
44822;SDS011;51097;51.984;5.650;2023-07-08T12:50:10;9.05;;;7.05;;
44822;SDS011;51097;51.984;5.650;2023-07-08T12:52:36;8.85;;;6.97;;
44822;SDS011;51097;51.984;5.650;2023-07-08T12:55:02;7.70;;;6.93;;
44822;SDS011;51097;51.984;5.650;2023-07-08T12:57:27;8.73;;;6.63;;
44822;SDS011;51097;51.984;5.650;2023-07-08T12:59:53;8.20;;;6.45;;
44822;SDS011;51097;51.984;5.650;2023-07-08T13:02:20;7.03;;;6.32;;
44822;SDS011;51097;51.984;5.650;2023-07-08T13:04:49;9.55;;;6.72;;
44822;SDS011;51097;51.984;5.650;2023-07-08T13:07:22;9.60;;;7.15;;
44822;SDS011;51097;51.984;5.650;2023-07-08T13:10:03;10.13;;;7.28;;
44822;SDS011;51097;51.984;5.650;2023-07-08T13:12:31;11.57;;;6.97;;
44822;SDS011;51097;51.984;5.650;2023-07-08T13:15:00;8.20;;;7.00;;
44822;SDS011;51097;51.984;5.650;2023-07-08T13:17:27;7.38;;;6.38;;
44822;SDS011;51097;51.984;5.650;2023-07-08T13:19:53;10.43;;;6.63;;
44822;SDS011;51097;51.984;5.650;2023-07-08T13:22:21;7.00;;;6.30;;
44822;SDS011;51097;51.984;5.650;2023-07-08T13:24:47;8.55;;;7.03;;
44822;SDS011;51097;51.984;5.650;2023-07-08T13:27:22;8.05;;;6.35;;
44822;SDS011;51097;51.984;5.650;2023-07-08T13:29:53;8.70;;;6.95;;
44822;SDS011;51097;51.984;5.650;2023-07-08T13:32:28;7.57;;;6.88;;
44822;SDS011;51097;51.984;5.650;2023-07-08T13:34:56;9.75;;;6.50;;
44822;SDS011;51097;51.984;5.650;2023-07-08T13:37:21;9.93;;;7.47;;
44822;SDS011;51097;51.984;5.650;2023-07-08T13:39:51;10.30;;;6.55;;
44822;SDS011;51097;51.984;5.650;2023-07-08T13:42:18;8.77;;;7.65;;
44822;SDS011;51097;51.984;5.650;2023-07-08T13:44:47;8.02;;;7.20;;
44822;SDS011;51097;51.984;5.650;2023-07-08T13:47:25;9.25;;;6.90;;
44822;SDS011;51097;51.984;5.650;2023-07-08T13:49:55;9.27;;;7.55;;
44822;SDS011;51097;51.984;5.650;2023-07-08T13:52:43;10.20;;;7.55;;
44822;SDS011;51097;51.984;5.650;2023-07-08T13:55:12;7.78;;;6.60;;
44822;SDS011;51097;51.984;5.650;2023-07-08T13:57:43;9.80;;;7.00;;
44822;SDS011;51097;51.984;5.650;2023-07-08T14:00:10;9.90;;;7.47;;
44822;SDS011;51097;51.984;5.650;2023-07-08T14:02:36;8.18;;;6.82;;
44822;SDS011;51097;51.984;5.650;2023-07-08T14:05:09;8.55;;;6.88;;
44822;SDS011;51097;51.984;5.650;2023-07-08T14:07:36;10.82;;;7.05;;
44822;SDS011;51097;51.984;5.650;2023-07-08T14:10:04;9.30;;;7.65;;
44822;SDS011;51097;51.984;5.650;2023-07-08T14:12:47;9.02;;;7.38;;
44822;SDS011;51097;51.984;5.650;2023-07-08T14:15:14;9.45;;;7.43;;
44822;SDS011;51097;51.984;5.650;2023-07-08T14:17:39;9.45;;;6.55;;
44822;SDS011;51097;51.984;5.650;2023-07-08T14:20:10;8.55;;;7.43;;
44822;SDS011;51097;51.984;5.650;2023-07-08T14:22:38;11.27;;;7.30;;
44822;SDS011;51097;51.984;5.650;2023-07-08T14:25:07;9.55;;;7.15;;
44822;SDS011;51097;51.984;5.650;2023-07-08T14:27:35;9.07;;;7.88;;
44822;SDS011;51097;51.984;5.650;2023-07-08T14:30:00;10.75;;;6.78;;
44822;SDS011;51097;51.984;5.650;2023-07-08T14:32:28;7.85;;;7.10;;
44822;SDS011;51097;51.984;5.650;2023-07-08T14:34:56;8.38;;;7.55;;
44822;SDS011;51097;51.984;5.650;2023-07-08T14:37:25;9.07;;;7.53;;
44822;SDS011;51097;51.984;5.650;2023-07-08T14:39:51;10.13;;;7.20;;
44822;SDS011;51097;51.984;5.650;2023-07-08T14:42:17;12.18;;;7.53;;
44822;SDS011;51097;51.984;5.650;2023-07-08T14:44:44;7.93;;;7.10;;
44822;SDS011;51097;51.984;5.650;2023-07-08T14:49:40;8.80;;;7.65;;
44822;SDS011;51097;51.984;5.650;2023-07-08T14:52:06;9.75;;;6.63;;
44822;SDS011;51097;51.984;5.650;2023-07-08T14:54:32;9.73;;;7.55;;
44822;SDS011;51097;51.984;5.650;2023-07-08T14:56:58;8.15;;;7.28;;
44822;SDS011;51097;51.984;5.650;2023-07-08T14:59:25;10.45;;;7.32;;
44822;SDS011;51097;51.984;5.650;2023-07-08T15:01:54;10.35;;;7.70;;
44822;SDS011;51097;51.984;5.650;2023-07-08T15:04:21;12.45;;;6.93;;
44822;SDS011;51097;51.984;5.650;2023-07-08T15:06:47;8.13;;;7.35;;
44822;SDS011;51097;51.984;5.650;2023-07-08T15:09:14;9.53;;;6.97;;
44822;SDS011;51097;51.984;5.650;2023-07-08T15:11:42;10.23;;;6.85;;
44822;SDS011;51097;51.984;5.650;2023-07-08T15:14:25;10.43;;;7.75;;
44822;SDS011;51097;51.984;5.650;2023-07-08T15:16:52;8.00;;;7.20;;
44822;SDS011;51097;51.984;5.650;2023-07-08T15:19:18;9.50;;;7.22;;
44822;SDS011;51097;51.984;5.650;2023-07-08T15:21:44;8.65;;;7.75;;
44822;SDS011;51097;51.984;5.650;2023-07-08T15:24:11;8.52;;;6.78;;
44822;SDS011;51097;51.984;5.650;2023-07-08T15:26:42;8.53;;;7.23;;
44822;SDS011;51097;51.984;5.650;2023-07-08T15:29:12;6.97;;;6.25;;
44822;SDS011;51097;51.984;5.650;2023-07-08T15:31:41;11.25;;;7.45;;
44822;SDS011;51097;51.984;5.650;2023-07-08T15:34:14;7.97;;;6.88;;
44822;SDS011;51097;51.984;5.650;2023-07-08T15:36:44;9.60;;;7.25;;
44822;SDS011;51097;51.984;5.650;2023-07-08T15:39:10;9.80;;;7.50;;
44822;SDS011;51097;51.984;5.650;2023-07-08T15:41:36;7.15;;;6.45;;
44822;SDS011;51097;51.984;5.650;2023-07-08T15:44:03;9.40;;;7.93;;
44822;SDS011;51097;51.984;5.650;2023-07-08T15:46:31;8.05;;;7.25;;
44822;SDS011;51097;51.984;5.650;2023-07-08T15:48:58;9.15;;;7.43;;
44822;SDS011;51097;51.984;5.650;2023-07-08T15:51:24;10.23;;;6.90;;
44822;SDS011;51097;51.984;5.650;2023-07-08T15:53:50;9.23;;;6.93;;
44822;SDS011;51097;51.984;5.650;2023-07-08T15:56:17;9.05;;;6.53;;
44822;SDS011;51097;51.984;5.650;2023-07-08T15:58:45;7.13;;;6.43;;
44822;SDS011;51097;51.984;5.650;2023-07-08T16:01:21;7.13;;;6.43;;
44822;SDS011;51097;51.984;5.650;2023-07-08T16:03:49;8.10;;;7.38;;
44822;SDS011;51097;51.984;5.650;2023-07-08T16:06:15;8.82;;;6.63;;